Pala Temecula (TM1) Station Data

Red Flag Warning: No
Fire Weather Zone: 250
SDGE Region: North East
Lat/Lon: 33.419/-117.082

Observations

Time Wind Speed/Gust Temp(F) RH Fuel Moist Fuel Temp(F) Dewpt(F) Tmax(F) Tmin(F) Accum Precip 10-min Precip SL Press(mb)
6/27 5:00pm 183 5 G 11 90° 14% - - 34° 96.6° 65° - - 876.0
6/27 4:50pm 200 7 G 13 90° 13% - - 33° 96.6° 65° - - 876.0
6/27 4:40pm 210 8 G 14 90° 11% - - 29° 96.6° 65° - - 875.0
6/27 4:30pm 208 10 G 17 90° 10% - - 26° 96.6° 65° - - 875.0
6/27 4:20pm 203 10 G 16 90° 10% - - 27° 96.6° 65° - - 876.0
6/27 4:10pm 196 8 G 16 91° 11% - - 29° 96.6° 65° - - 877.0
6/27 4:00pm 189 8 G 17 90° 11% - - 28° 96.6° 65° - - 877.0
6/27 3:50pm 185 8 G 16 91° 12% - - 31° 96.6° 65° - - 878.0
6/27 3:40pm 158 8 G 17 91° 11% - - 30° 96.6° 65° - - 878.0
6/27 3:30pm 166 7 G 17 93° 12% - - 33° 96.6° 65° - - 878.0
6/27 3:20pm 184 6 G 15 92° 11% - - 30° 96.6° 65° - - 878.0
6/27 3:10pm 201 9 G 17 91° 12% - - 32° 96.6° 65° - - 878.0
6/27 3:00pm 207 10 G 21 92° 13% - - 35° 96.6° 65° - - 879.0
6/27 2:50pm 182 9 G 16 92° 13% - - 35° 96.6° 65° - - 879.0
6/27 2:40pm 180 8 G 16 93° 13% - - 36° 96.6° 65° - - 879.0
6/27 2:30pm 195 9 G 18 93° 13% - - 36° 96.6° 65° - - 879.0
6/27 2:20pm 199 8 G 16 95° 12% - - 33° 96.6° 65° - - 879.0
6/27 2:10pm 188 8 G 17 95° 11% - - 32° 96.6° 65° - - 879.0
6/27 2:00pm 182 7 G 15 95° 11% - - 32° 96.6° 65° - - 879.0
6/27 1:50pm 194 8 G 16 94° 11% - - 32° 96.6° 65° - - 879.0
6/27 1:40pm 208 10 G 18 93° 11% - - 32° 96.6° 65° - - 880.0
6/27 1:30pm 214 11 G 19 93° 11% - - 31° 96.6° 65° - - 880.0
6/27 1:20pm 208 9 G 17 94° 11% - - 31° 96.6° 65° - - 881.0
6/27 1:10pm 198 9 G 16 94° 12% - - 33° 96.6° 65° - - 881.0
6/27 1:00pm 181 9 G 17 95° 12% - - 34° 96.6° 65° - - 882.0
6/27 12:50pm 188 7 G 16 96° 11% - - 33° 96.6° 65° - - 882.0
6/27 12:40pm 191 6 G 13 96° 10% - - 31° 96.6° 65° - - 881.0
6/27 12:30pm 192 6 G 18 95° 9% - - 27° 96.6° 65° - - 881.0
6/27 12:20pm 154 7 G 13 96° 9% - - 28° 96.5° 65° - - 881.0
6/27 12:10pm 145 7 G 15 96° 9% - - 27° 96° 65° - - 880.0
6/27 12:00pm 151 7 G 14 95° 9% - - 26° 95.9° 65° - - 880.0
6/27 11:50am 153 7 G 15 95° 9% - - 27° 95.9° 65° - - 880.0
6/27 11:40am 154 7 G 14 95° 9% - - 26° 95.9° 65° - - 880.0
6/27 11:30am 150 7 G 13 95° 9% - - 26° 95.2° 65° - - 879.0
6/27 11:20am 152 7 G 13 94° 9% - - 26° 94.5° 65° - - 879.0
6/27 11:10am 155 8 G 12 93° 9% - - 26° 94.3° 65° - - 879.0
6/27 11:00am 159 6 G 10 93° 9% - - 27° 94.1° 65° - - 878.0
6/27 10:50am 163 6 G 12 93° 9% - - 27° 93.3° 65° - - 878.0
6/27 10:40am 174 6 G 11 92° 9% - - 26° 92.1° 65° - - 878.0
6/27 10:30am 156 7 G 12 91° 10% - - 27° 91.7° 65° - - 878.0
6/27 10:20am 163 6 G 12 91° 10% - - 28° 91.6° 65° - - 878.0
6/27 10:10am 160 6 G 11 91° 10% - - 27° 91.3° 65° - - 877.0
6/27 10:00am 170 6 G 10 90° 10% - - 26° 90.8° 65° - - 877.0
6/27 9:50am 164 6 G 10 90° 10% - - 27° 90.4° 65° - - 876.0
6/27 9:40am 159 5 G 10 89° 11% - - 27° 90° 65° - - 876.0
6/27 9:30am 152 5 G 9 88° 12% - - 29° 88.8° 65° - - 876.0
6/27 9:20am 158 5 G 9 87° 13% - - 30° 88.4° 65° - - 876.0
6/27 9:10am 169 4 G 7 87° 14% - - 32° 87.2° 65° - - 875.0
6/27 9:00am 175 2 G 5 86° 14% - - 32° 87.1° 65° - - 874.0
6/27 8:50am 140 2 G 4 85° 17% - - 34° 85.9° 65° - - 874.0
6/27 8:40am 144 1 G 4 83° 20% - - 37° 83.6° 65° - - 874.0
6/27 8:30am 353 2 G 4 80° 20% - - 35° 81.2° 65° - - 872.0
6/27 8:20am 334 3 G 6 78° 21% - - 35° 79.2° 65° - - 872.0
6/27 8:10am 347 3 G 8 77° 23% - - 36° 78.2° 65° - - 872.0
6/27 8:00am 336 3 G 7 76° 25% - - 37° 78.2° 65° - - 872.0
6/27 7:50am 326 4 G 7 74° 26% - - 37° 78.2° 65° - - 872.0
6/27 7:40am 324 5 G 8 72° 28% - - 37° 78.2° 65° - - 872.0
6/27 7:30am 316 5 G 9 72° 28% - - 37° 78.2° 65° - - 872.0
6/27 7:20am 331 4 G 8 71° 27% - - 35° 78.2° 65° - - 871.0
6/27 7:10am 325 4 G 8 73° 25% - - 34° 78.2° 65° - - 869.0
6/27 7:00am 321 3 G 6 73° 24% - - 34° 78.2° 65° - - 869.0
6/27 6:50am 323 1 G 3 73° 23% - - 34° 78.2° 65° - - 868.0
6/27 6:40am 326 3 G 4 70° 25% - - 33° 78.2° 65° - - 868.0
6/27 6:30am 327 4 G 6 69° 28% - - 34° 78.2° 65° - - 869.0
6/27 6:20am 330 5 G 7 67° 31% - - 35° 78.2° 65° - - 870.0
6/27 6:10am 326 6 G 7 66° 34% - - 36° 78.2° 65° - - 871.0
6/27 6:00am 322 6 G 7 66° 33% - - 36° 78.2° 65.4° - - 871.0
6/27 5:50am 327 5 G 7 68° 28% - - 34° 78.2° 66.8° - - 869.0
6/27 5:40am 333 5 G 7 70° 23% - - 30° 78.2° 68.2° - - 868.0
6/27 5:30am 328 3 G 6 71° 22% - - 30° 78.2° 70° - - 868.0
6/27 5:20am 325 4 G 6 71° 21% - - 29° 78.2° 70.5° - - 867.0
6/27 5:10am 340 3 G 5 73° 19% - - 29° 78.2° 71.9° - - 867.0
6/27 5:00am 122 0 G 2 74° 19% - - 30° 78.2° 71.9° - - 867.0
6/27 4:50am 212 1 G 2 75° 19% - - 30° 78.2° 71.9° - - 867.0
6/27 4:40am 290 2 G 3 74° 19% - - 30° 78.2° 71.9° - - 868.0
6/27 4:30am 17 1 G 2 74° 20% - - 30° 78.2° 71.9° - - 868.0
6/27 4:20am 191 1 G 3 74° 20% - - 31° 78.2° 71.9° - - 868.0
6/27 4:10am 152 1 G 2 74° 20% - - 30° 78.2° 71.9° - - 868.0
6/27 4:00am 12 0 G 2 74° 19% - - 29° 78.2° 71.9° - - 867.0
6/27 3:50am 332 3 G 5 74° 19% - - 29° 78.2° 71.9° - - 867.0
6/27 3:40am 318 2 G 4 74° 19% - - 30° 78.2° 71.9° - - 868.0
6/27 3:30am 332 3 G 6 73° 20% - - 30° 78.2° 71.9° - - 868.0
6/27 3:20am 338 2 G 4 74° 21% - - 31° 78.2° 72.6° - - 868.0
6/27 3:10am 334 3 G 5 74° 21% - - 32° 78.2° 72.6° - - 868.0
6/27 3:00am 334 4 G 6 73° 23% - - 33° 78.2° 72.6° - - 869.0
6/27 2:50am 319 3 G 5 74° 24% - - 35° 78.2° 73.3° - - 870.0
6/27 2:40am 236 1 G 2 74° 24% - - 35° 78.2° 73.6° - - 870.0
6/27 2:30am 194 1 G 2 74° 24% - - 35° 78.2° 73.8° - - 870.0
6/27 2:20am 162 1 G 4 75° 24% - - 35° 78.2° 74.2° - - 870.0
6/27 2:10am 163 3 G 5 75° 25% - - 36° 78.2° 74.2° - - 870.0
6/27 2:00am 153 3 G 5 75° 24% - - 36° 78.2° 74.4° - - 870.0
6/27 1:50am 162 2 G 4 75° 24% - - 36° 78.2° 74.4° - - 870.0
6/27 1:40am 169 1 G 3 75° 24% - - 35° 78.2° 74.4° - - 870.0
6/27 1:30am 168 1 G 4 76° 24% - - 36° 78.2° 75° - - 870.0
6/27 1:20am 157 0 G 2 76° 22% - - 35° 78.2° 75.6° - - 870.0
6/27 1:10am 130 2 G 3 77° 21% - - 34° 78.2° 76.5° - - 870.0
6/27 1:00am 231 1 G 2 78° 21% - - 35° 78.2° 76.6° - - 870.0
6/27 12:50am 50 1 G 2 78° 22% - - 36° 78.2° 76.6° - - 870.0
6/27 12:40am 72 1 G 2 77° 25% - - 39° 78.2° 76.6° - - 872.0
6/27 12:30am 318 1 G 2 77° 25% - - 39° 78.2° 76.6° - - 872.0
6/27 12:20am 258 2 G 3 78° 26% - - 41° 78.2° 76.7° - - 872.0
6/27 12:10am 1 1 G 4 77° 27% - - 41° 77.8° 76.7° - - 873.0
6/27 12:00am 346 2 G 4 77° 29% - - 42° 100.9° 69.6° - - 873.0
6/26 11:50pm 333 2 G 3 77° 30% - - 43° 100.9° 69.6° - - 874.0
6/26 11:40pm 343 1 G 2 77° 30% - - 43° 100.9° 69.6° - - 874.0
6/26 11:30pm 178 1 G 2 78° 28% - - 43° 100.9° 69.6° - - 873.0
6/26 11:20pm 115 2 G 3 79° 28% - - 43° 100.9° 69.6° - - 873.0
6/26 11:10pm 55 2 G 3 78° 30% - - 44° 100.9° 69.6° - - 874.0
6/26 11:00pm 325 2 G 3 77° 32% - - 45° 100.9° 69.6° - - 875.0
6/26 10:50pm 250 2 G 5 77° 33% - - 45° 100.9° 69.6° - - 875.0
6/26 10:40pm 153 4 G 5 77° 32% - - 45° 100.9° 69.6° - - 875.0
6/26 10:30pm 169 4 G 5 77° 33% - - 45° 100.9° 69.6° - - 876.0
6/26 10:20pm 201 2 G 3 77° 34% - - 46° 100.9° 69.6° - - 876.0
6/26 10:10pm 166 2 G 4 77° 33% - - 46° 100.9° 69.6° - - 876.0
6/26 10:00pm 154 3 G 4 77° 34% - - 47° 100.9° 69.6° - - 877.0
6/26 9:50pm 169 3 G 4 77° 34% - - 47° 100.9° 69.6° - - 877.0
6/26 9:40pm 164 4 G 6 77° 33% - - 46° 100.9° 69.6° - - 877.0
6/26 9:30pm 168 4 G 6 78° 32% - - 46° 100.9° 69.6° - - 877.0
6/26 9:20pm 167 4 G 7 79° 31% - - 46° 100.9° 69.6° - - 877.0
6/26 9:10pm 164 5 G 8 79° 29% - - 45° 100.9° 69.6° - - 876.0
6/26 9:00pm 162 5 G 6 80° 28% - - 44° 100.9° 69.6° - - 876.0
6/26 8:50pm 185 3 G 6 81° 28% - - 44° 100.9° 69.6° - - 876.0
6/26 8:40pm 176 3 G 6 81° 27% - - 44° 100.9° 69.6° - - 876.0
6/26 8:30pm 189 4 G 6 81° 27% - - 44° 100.9° 69.6° - - 877.0
6/26 8:20pm 185 4 G 7 82° 27% - - 44° 100.9° 69.6° - - 877.0
6/26 8:10pm 172 3 G 6 82° 27% - - 44° 100.9° 69.6° - - 878.0
6/26 8:00pm 172 3 G 6 82° 27% - - 44° 100.9° 69.6° - - 878.0
6/26 7:50pm 179 3 G 6 83° 26% - - 45° 100.9° 69.6° - - 879.0
6/26 7:40pm 169 4 G 8 84° 25% - - 44° 100.9° 69.6° - - 879.0
6/26 7:30pm 171 3 G 7 86° 23% - - 44° 100.9° 69.6° - - 880.0
6/26 7:20pm 164 4 G 7 87° 22% - - 44° 100.9° 69.6° - - 880.0
6/26 7:10pm 165 4 G 8 88° 22% - - 45° 100.9° 69.6° - - 880.0
6/26 7:00pm 172 4 G 10 89° 21% - - 44° 100.9° 69.6° - - 881.0
6/26 6:50pm 189 5 G 10 90° 21% - - 44° 100.9° 69.6° - - 881.0
6/26 6:40pm 175 4 G 10 90° 21% - - 45° 100.9° 69.6° - - 881.0
6/26 6:30pm 170 5 G 9 91° 20% - - 45° 100.9° 69.6° - - 882.0
6/26 6:20pm 176 5 G 8 92° 20% - - 45° 100.9° 69.6° - - 882.0
6/26 6:10pm 169 5 G 8 93° 19% - - 45° 100.9° 69.6° - - 882.0
6/26 6:00pm 183 5 G 9 93° 18% - - 44° 100.9° 69.6° - - 883.0
6/26 5:50pm 177 5 G 10 94° 18% - - 44° 100.9° 69.6° - - 883.0
6/26 5:40pm 178 5 G 9 94° 18% - - 44° 100.9° 69.6° - - 883.0
6/26 5:30pm 187 5 G 9 95° 18% - - 46° 100.9° 69.6° - - 884.0
6/26 5:20pm 184 5 G 11 96° 19% - - 46° 100.9° 69.6° - - 884.0
6/26 5:10pm 184 5 G 8 96° 19% - - 47° 100.9° 69.6° - - 884.0
6/26 5:00pm 178 6 G 10 97° 19% - - 47° 100.9° 69.6° - - 885.0
6/26 4:50pm 186 5 G 8 97° 19% - - 48° 100.9° 69.6° - - 885.0
6/26 4:40pm 188 5 G 11 97° 20% - - 49° 100.9° 69.6° - - 886.0
6/26 4:30pm 194 5 G 10 97° 19% - - 48° 100.9° 69.6° - - 886.0
6/26 4:20pm 191 6 G 10 97° 19% - - 48° 100.9° 69.6° - - 886.0
6/26 4:10pm 186 5 G 11 98° 18% - - 47° 100.9° 69.6° - - 886.0
6/26 4:00pm 189 5 G 11 99° 17% - - 46° 100.9° 69.6° - - 886.0
6/26 3:50pm 183 5 G 10 99° 17% - - 46° 100.9° 69.6° - - 886.0
6/26 3:40pm 172 6 G 12 98° 17% - - 45° 100.9° 69.6° - - 886.0
6/26 3:30pm 176 6 G 12 98° 17% - - 46° 100.9° 69.6° - - 886.0
6/26 3:20pm 178 6 G 12 99° 17% - - 46° 100.9° 69.6° - - 886.0
6/26 3:10pm 177 7 G 13 98° 17% - - 46° 100.9° 69.6° - - 886.0
6/26 3:00pm 168 6 G 13 99° 17% - - 46° 100.9° 69.6° - - 886.0
6/26 2:50pm 168 7 G 15 98° 18% - - 47° 100.9° 69.6° - - 886.0
6/26 2:40pm 176 7 G 14 98° 17% - - 46° 100.9° 69.6° - - 886.0
6/26 2:30pm 165 8 G 16 98° 18% - - 47° 100.9° 69.6° - - 886.0
6/26 2:20pm 174 7 G 14 98° 18% - - 48° 100.9° 69.6° - - 886.0
6/26 2:10pm 173 7 G 14 98° 18% - - 48° 100.9° 69.6° - - 886.0
6/26 2:00pm 171 8 G 17 98° 19% - - 48° 100.9° 69.6° - - 887.0
6/26 1:50pm 175 8 G 14 98° 17% - - 46° 100.9° 69.6° - - 887.0
6/26 1:40pm 160 8 G 16 98° 17% - - 45° 100.9° 69.6° - - 887.0
6/26 1:30pm 173 7 G 16 99° 16% - - 45° 100.9° 69.6° - - 887.0
6/26 1:20pm 177 6 G 13 99° 16% - - 44° 100.9° 69.6° - - 887.0
6/26 1:10pm 177 6 G 13 100° 15% - - 43° 100.9° 69.6° - - 887.0
6/26 1:00pm 164 7 G 14 99° 14% - - 41° 100.9° 69.6° - - 887.0
6/26 12:50pm 162 6 G 12 99° 13% - - 41° 100.9° 69.6° - - 887.0
6/26 12:40pm 153 7 G 13 99° 14% - - 41° 100.9° 69.6° - - 887.0
6/26 12:30pm 156 8 G 14 99° 15% - - 42° 100.9° 69.6° - - 888.0
6/26 12:20pm 155 8 G 14 99° 15% - - 43° 100.9° 69.6° - - 888.0
6/26 12:10pm 160 7 G 13 100° 15% - - 44° 100.9° 69.6° - - 888.0
6/26 12:00pm 131 8 G 15 98° 15% - - 43° 100.9° 69.6° - - 888.0
6/26 11:50am 156 7 G 14 100° 14% - - 42° 100.9° 69.6° - - 888.0
6/26 11:40am 175 6 G 12 100° 14% - - 42° 100.5° 69.6° - - 888.0
6/26 11:30am 169 6 G 11 100° 13% - - 41° 100.5° 69.6° - - 887.0
6/26 11:20am 165 7 G 13 100° 13% - - 40° 100.3° 69.6° - - 887.0
6/26 11:10am 150 6 G 11 100° 13% - - 41° 100.3° 69.6° - - 887.0
6/26 11:00am 157 6 G 11 100° 12% - - 39° 100.2° 69.6° - - 887.0
6/26 10:50am 132 5 G 10 99° 12% - - 38° 99.9° 69.6° - - 886.0
6/26 10:40am 163 5 G 9 99° 12% - - 38° 99.9° 69.6° - - 886.0
6/26 10:30am 158 5 G 11 99° 13% - - 39° 99.4° 69.6° - - 885.0
6/26 10:20am 150 4 G 8 97° 14% - - 40° 98.7° 69.6° - - 885.0
6/26 10:10am 132 5 G 10 96° 15% - - 40° 96.2° 69.6° - - 884.0
6/26 10:00am 143 5 G 10 95° 14% - - 39° 95.8° 69.6° - - 883.0
6/26 9:50am 149 4 G 7 94° 14% - - 38° 95.3° 69.6° - - 883.0
6/26 9:40am 170 4 G 9 94° 17% - - 42° 94.3° 69.6° - - 883.0
6/26 9:30am 177 3 G 7 92° 19% - - 45° 92.7° 69.6° - - 883.0
6/26 9:20am 160 3 G 6 92° 19% - - 44° 92.5° 69.6° - - 881.0
6/26 9:10am 192 2 G 5 91° 22% - - 47° 91.7° 69.6° - - 881.0
6/26 9:00am 10 1 G 4 89° 23% - - 46° 89.8° 69.6° - - 879.0
6/26 8:50am 347 4 G 6 86° 26% - - 47° 87.1° 69.6° - - 879.0
6/26 8:40am 357 5 G 8 84° 27% - - 47° 84.9° 69.6° - - 878.0
6/26 8:30am 358 6 G 9 83° 29% - - 47° 83.5° 69.6° - - 878.0
6/26 8:20am 358 6 G 8 82° 30% - - 47° 82.3° 69.6° - - 877.0
6/26 8:10am 345 7 G 10 80° 32% - - 47° 81° 69.6° - - 877.0
6/26 8:00am 349 7 G 11 77° 33% - - 46° 80° 69.6° - - 877.0
6/26 7:50am 353 8 G 12 76° 35% - - 46° 80° 69.6° - - 877.0
6/26 7:40am 348 9 G 13 75° 36% - - 47° 80° 69.6° - - 877.0
6/26 7:30am 344 10 G 14 75° 38% - - 48° 80° 69.6° - - 877.0
6/26 7:20am 346 9 G 13 74° 42% - - 49° 80° 69.6° - - 879.0
6/26 7:10am 348 9 G 13 72° 44% - - 49° 80° 69.6° - - 879.0
6/26 7:00am 348 9 G 13 73° 42% - - 48° 80° 69.6° - - 877.0
6/26 6:50am 348 7 G 11 73° 37% - - 45° 80° 69.6° - - 875.0
6/26 6:40am 346 7 G 10 73° 35% - - 44° 80° 69.6° - - 874.0
6/26 6:30am 348 7 G 10 71° 38% - - 45° 80° 69.6° - - 875.0
6/26 6:20am 347 7 G 11 71° 41% - - 46° 80° 69.6° - - 876.0
6/26 6:10am 337 9 G 11 71° 40% - - 46° 80° 69.6° - - 876.0
6/26 6:00am 332 9 G 11 71° 44% - - 47° 80° 69.6° - - 878.0